Time;durP1;ratioP1;P1;durP2;ratioP2;P2;SDS_P1;SDS_P2;PMS_P1;PMS_P2;Temp;Humidity;BMP_temperature;BMP_pressure;BME280_temperature;BME280_humidity;BME280_pressure;Samples;Min_cycle;Max_cycle;Signal;HPM_P1;HPM_P2
2023/12/17 00:02:23;;;;;;;43.80;12.03;;;7.30;66.00;;;;;;5062142;28;20242;-58
2023/12/17 00:04:48;;;;;;;16.70;11.20;;;7.30;67.10;;;;;;5068191;28;20278;-58
2023/12/17 00:07:14;;;;;;;49.67;11.90;;;7.30;67.30;;;;;;5067058;28;20207;-57
2023/12/17 00:09:40;;;;;;;23.20;9.73;;;7.40;67.40;;;;;;5066256;28;20199;-59
2023/12/17 00:12:06;;;;;;;21.37;10.07;;;7.60;67.50;;;;;;5065306;28;20222;-59
2023/12/17 00:14:31;;;;;;;11.57;8.93;;;7.60;66.60;;;;;;5066583;28;20215;-52
2023/12/17 00:16:57;;;;;;;33.83;11.00;;;7.60;67.20;;;;;;5067278;28;20288;-58
2023/12/17 00:19:22;;;;;;;34.03;10.03;;;7.50;66.70;;;;;;5063706;28;20219;-57
2023/12/17 00:21:48;;;;;;;23.27;9.20;;;7.40;67.10;;;;;;5063854;28;20233;-59
2023/12/17 00:24:13;;;;;;;28.43;9.83;;;7.30;67.30;;;;;;5066981;28;20184;-57
2023/12/17 00:26:39;;;;;;;57.20;10.57;;;7.20;67.60;;;;;;5065034;28;20183;-59
2023/12/17 00:29:04;;;;;;;21.37;9.63;;;7.10;67.80;;;;;;5065826;28;20208;-57
2023/12/17 00:31:30;;;;;;;32.27;9.97;;;7.20;68.40;;;;;;5065729;28;20188;-54
2023/12/17 00:33:55;;;;;;;20.27;9.60;;;7.30;68.30;;;;;;5067237;28;20211;-58
2023/12/17 00:36:21;;;;;;;34.37;9.43;;;7.30;67.50;;;;;;5064026;28;20629;-59
2023/12/17 00:38:47;;;;;;;18.30;9.87;;;7.40;67.10;;;;;;5063498;28;20209;-58
2023/12/17 00:41:13;;;;;;;13.77;9.83;;;7.40;67.30;;;;;;5065124;28;20284;-58
2023/12/17 00:43:38;;;;;;;15.97;8.93;;;7.50;67.40;;;;;;5065882;28;20191;-56
2023/12/17 00:46:04;;;;;;;37.63;10.47;;;7.50;67.10;;;;;;5066684;28;20848;-60
2023/12/17 00:48:31;;;;;;;19.37;9.10;;;7.50;66.90;;;;;;5066996;28;20196;-58
2023/12/17 00:50:56;;;;;;;22.03;9.73;;;7.40;67.20;;;;;;5067280;28;20697;-58
2023/12/17 00:53:22;;;;;;;16.33;9.40;;;7.30;67.20;;;;;;5066119;28;20450;-59
2023/12/17 00:55:47;;;;;;;16.73;8.80;;;7.40;67.30;;;;;;5063593;28;20253;-59
2023/12/17 00:58:13;;;;;;;35.47;9.80;;;7.40;67.40;;;;;;5063810;28;20217;-57
2023/12/17 01:00:38;;;;;;;21.50;10.00;;;7.40;67.50;;;;;;5069292;28;20696;-59
2023/12/17 01:03:04;;;;;;;30.60;10.50;;;7.40;67.70;;;;;;5066592;28;20926;-59
2023/12/17 01:05:33;;;;;;;10.30;9.00;;;7.50;67.10;;;;;;5063772;28;20552;-58
2023/12/17 01:07:59;;;;;;;32.77;9.60;;;7.50;67.40;;;;;;5067092;28;20556;-59
2023/12/17 01:10:24;;;;;;;38.03;9.50;;;7.50;67.40;;;;;;5062820;28;20438;-59
2023/12/17 01:12:50;;;;;;;24.70;9.80;;;7.40;67.40;;;;;;5066424;28;20180;-59
2023/12/17 01:15:15;;;;;;;23.30;9.53;;;7.50;67.40;;;;;;5067432;28;20280;-56
2023/12/17 01:17:41;;;;;;;27.07;8.27;;;7.50;67.00;;;;;;5064633;28;20184;-58
2023/12/17 01:20:08;;;;;;;37.20;9.30;;;7.60;66.50;;;;;;5063681;28;20215;-59
2023/12/17 01:22:33;;;;;;;47.57;9.13;;;7.40;66.20;;;;;;5065691;28;20188;-58
2023/12/17 01:24:59;;;;;;;29.90;9.30;;;7.30;67.00;;;;;;5063520;28;20446;-59
2023/12/17 01:27:24;;;;;;;34.13;8.37;;;7.10;67.60;;;;;;5066228;28;20211;-59
2023/12/17 01:29:50;;;;;;;16.27;8.90;;;7.00;67.70;;;;;;5064817;28;20607;-57
2023/12/17 01:32:16;;;;;;;49.90;9.87;;;7.00;68.60;;;;;;5059820;28;20189;-57
2023/12/17 01:34:41;;;;;;;50.20;9.97;;;6.70;69.20;;;;;;5062348;28;20218;-56
2023/12/17 01:37:07;;;;;;;33.23;9.07;;;6.40;70.30;;;;;;5064348;28;20267;-58
2023/12/17 01:39:32;;;;;;;60.47;9.73;;;6.40;72.20;;;;;;5065117;28;20208;-58
2023/12/17 01:41:59;;;;;;;62.97;9.33;;;6.40;71.50;;;;;;5064696;28;20190;-58
2023/12/17 01:44:25;;;;;;;16.00;8.20;;;6.40;72.50;;;;;;5063893;28;20274;-57
2023/12/17 01:46:50;;;;;;;32.53;8.53;;;6.50;71.90;;;;;;5063096;28;20430;-59
2023/12/17 01:49:16;;;;;;;14.53;8.03;;;6.70;71.10;;;;;;5065562;28;20231;-57
2023/12/17 01:51:42;;;;;;;14.70;8.50;;;6.90;70.00;;;;;;5062298;28;20180;-57
2023/12/17 01:54:08;;;;;;;50.20;10.10;;;6.90;69.20;;;;;;5057341;28;20203;-56
2023/12/17 01:56:34;;;;;;;63.67;10.30;;;7.00;68.70;;;;;;5060988;28;20482;-59
2023/12/17 01:59:01;;;;;;;12.67;9.23;;;6.60;68.50;;;;;;5057442;28;20207;-56
2023/12/17 02:01:27;;;;;;;46.30;9.53;;;6.20;70.80;;;;;;5063305;28;20190;-59
2023/12/17 02:03:54;;;;;;;68.23;10.97;;;6.10;72.40;;;;;;5063165;28;20457;-56
2023/12/17 02:06:20;;;;;;;44.57;10.03;;;5.80;73.10;;;;;;5064465;28;20447;-59
2023/12/17 02:08:45;;;;;;;55.00;8.87;;;5.80;74.00;;;;;;5060476;28;20866;-57
2023/12/17 02:11:11;;;;;;;11.93;7.83;;;6.00;73.80;;;;;;5061131;28;20187;-59
2023/12/17 02:13:36;;;;;;;27.53;9.67;;;6.10;73.10;;;;;;5066850;28;20188;-56
2023/12/17 02:16:02;;;;;;;27.20;8.00;;;5.90;72.60;;;;;;5065052;28;20208;-58
2023/12/17 02:18:28;;;;;;;23.97;8.07;;;5.60;74.20;;;;;;5054486;28;20279;-57
2023/12/17 02:20:53;;;;;;;30.93;9.20;;;5.60;75.00;;;;;;5061152;28;20184;-59
2023/12/17 02:23:19;;;;;;;23.80;8.00;;;5.60;74.60;;;;;;5067499;28;20230;-59
2023/12/17 02:25:45;;;;;;;10.93;7.27;;;5.30;75.60;;;;;;5064314;28;20242;-59
2023/12/17 02:28:10;;;;;;;57.80;10.10;;;5.50;76.00;;;;;;5060026;28;20188;-58
2023/12/17 02:30:36;;;;;;;35.63;9.60;;;5.70;74.10;;;;;;5065216;28;20199;-55
2023/12/17 02:33:02;;;;;;;40.93;8.70;;;5.60;73.90;;;;;;5059392;28;20263;-58
2023/12/17 02:35:27;;;;;;;28.70;8.67;;;5.60;74.80;;;;;;5063280;28;20286;-59
2023/12/17 02:37:53;;;;;;;14.30;8.90;;;5.50;74.70;;;;;;5062013;28;20250;-58
2023/12/17 02:40:18;;;;;;;18.10;7.47;;;5.60;75.20;;;;;;5062689;28;20208;-59
2023/12/17 02:42:44;;;;;;;17.47;7.90;;;5.80;75.00;;;;;;5064986;28;20481;-56
2023/12/17 02:45:11;;;;;;;35.40;8.07;;;5.90;74.40;;;;;;5064399;28;20721;-59
2023/12/17 02:47:36;;;;;;;67.10;11.27;;;5.90;73.00;;;;;;5063919;28;20254;-57
2023/12/17 02:50:02;;;;;;;13.40;7.50;;;5.90;71.80;;;;;;5065804;28;20495;-58
2023/12/17 02:52:28;;;;;;;24.73;7.93;;;5.80;72.50;;;;;;5062416;28;20204;-58
2023/12/17 02:54:53;;;;;;;23.10;8.47;;;5.60;72.90;;;;;;5063219;28;20516;-59
2023/12/17 02:57:24;;;;;;;37.50;9.03;;;5.30;74.50;;;;;;5063314;28;20210;-57
2023/12/17 02:59:53;;;;;;;24.83;8.20;;;5.10;75.70;;;;;;5063866;28;20211;-58
2023/12/17 03:02:19;;;;;;;30.47;7.93;;;5.20;76.70;;;;;;5060908;28;20594;-54
2023/12/17 03:04:45;;;;;;;17.40;8.90;;;5.40;76.60;;;;;;5064956;28;20442;-58
2023/12/17 03:07:10;;;;;;;10.50;7.80;;;5.60;75.50;;;;;;5068285;28;20557;-58
2023/12/17 03:09:36;;;;;;;7.80;7.00;;;5.80;74.80;;;;;;5062113;28;20226;-59
2023/12/17 03:12:02;;;;;;;17.10;7.63;;;6.10;73.90;;;;;;5060355;28;20647;-55
2023/12/17 03:14:31;;;;;;;9.83;7.20;;;6.20;72.30;;;;;;5066473;28;20200;-59
2023/12/17 03:16:57;;;;;;;8.10;7.00;;;6.20;71.70;;;;;;5061998;28;20438;-57
2023/12/17 03:19:23;;;;;;;14.77;7.10;;;6.30;71.20;;;;;;5061870;28;20446;-55
2023/12/17 03:21:48;;;;;;;10.40;7.30;;;6.30;69.90;;;;;;5067274;28;20192;-58
2023/12/17 03:24:14;;;;;;;18.87;7.57;;;6.20;70.10;;;;;;5067816;28;20473;-54
2023/12/17 03:26:40;;;;;;;9.80;7.37;;;6.20;70.40;;;;;;5064139;28;20192;-58
2023/12/17 03:29:05;;;;;;;27.17;8.60;;;6.20;70.30;;;;;;5064319;28;20704;-59
2023/12/17 03:31:31;;;;;;;54.53;9.10;;;6.00;70.40;;;;;;5065890;28;20309;-57
2023/12/17 03:33:56;;;;;;;31.93;8.43;;;5.90;71.60;;;;;;5065179;28;20180;-59
2023/12/17 03:36:22;;;;;;;19.60;7.23;;;5.70;72.50;;;;;;5064684;28;20212;-59
2023/12/17 03:38:48;;;;;;;12.50;6.87;;;5.80;73.40;;;;;;5066759;28;20284;-58
2023/12/17 03:41:23;;;;;;;19.63;7.60;;;6.00;73.00;;;;;;5068597;28;20212;-57
2023/12/17 03:43:53;;;;;;;18.17;6.77;;;6.20;71.80;;;;;;5063437;28;20500;-59
2023/12/17 03:46:20;;;;;;;10.90;7.30;;;5.90;70.80;;;;;;5067259;28;20495;-56
2023/12/17 03:48:46;;;;;;;18.70;7.13;;;5.80;72.00;;;;;;5068902;28;20496;-59
2023/12/17 03:51:12;;;;;;;36.27;8.00;;;5.80;72.40;;;;;;5065709;28;20464;-58
2023/12/17 03:53:38;;;;;;;22.93;7.50;;;5.90;72.30;;;;;;5068658;28;20442;-56
2023/12/17 03:56:07;;;;;;;18.20;7.50;;;5.60;72.50;;;;;;5066383;28;20623;-57
2023/12/17 03:58:33;;;;;;;15.47;6.67;;;5.50;74.20;;;;;;5062219;28;20191;-58
2023/12/17 04:00:58;;;;;;;18.93;7.20;;;5.60;74.40;;;;;;5065747;28;20461;-57
2023/12/17 04:03:24;;;;;;;12.50;6.87;;;5.60;73.40;;;;;;5063689;28;20207;-59
2023/12/17 04:05:49;;;;;;;20.50;6.80;;;5.70;74.30;;;;;;5064854;28;20175;-57
2023/12/17 04:08:15;;;;;;;67.17;11.43;;;5.90;73.00;;;;;;5067800;28;20187;-56
2023/12/17 04:10:40;;;;;;;12.20;6.40;;;5.80;72.00;;;;;;5062767;28;20264;-58
2023/12/17 04:13:06;;;;;;;15.53;8.83;;;5.80;72.80;;;;;;5066455;28;21045;-58
2023/12/17 04:15:31;;;;;;;16.30;7.37;;;5.80;72.40;;;;;;5061522;28;20594;-58
2023/12/17 04:17:57;;;;;;;19.87;7.23;;;5.90;71.70;;;;;;5061894;28;20188;-57
2023/12/17 04:20:22;;;;;;;17.90;6.90;;;5.70;71.70;;;;;;5064016;28;20725;-58
2023/12/17 04:22:48;;;;;;;10.47;6.60;;;5.60;72.10;;;;;;5062491;28;20713;-56
2023/12/17 04:25:14;;;;;;;21.37;7.73;;;5.70;72.70;;;;;;5056871;28;20333;-58
2023/12/17 04:27:40;;;;;;;20.50;7.60;;;5.60;71.80;;;;;;5061595;28;20221;-57
2023/12/17 04:30:06;;;;;;;7.60;6.63;;;5.70;72.30;;;;;;5063438;28;20996;-58
2023/12/17 04:32:32;;;;;;;10.37;7.50;;;5.70;72.60;;;;;;5064740;28;20818;-58
2023/12/17 04:34:57;;;;;;;7.67;6.87;;;5.90;72.30;;;;;;5064100;28;20478;-57
2023/12/17 04:37:23;;;;;;;8.20;6.40;;;6.00;71.40;;;;;;5061301;28;20682;-56
2023/12/17 04:39:49;;;;;;;8.30;6.60;;;6.00;70.90;;;;;;5063291;28;20357;-57
2023/12/17 04:42:18;;;;;;;7.40;6.70;;;6.00;70.50;;;;;;5064185;28;20188;-56
2023/12/17 04:44:43;;;;;;;8.60;7.10;;;6.10;70.70;;;;;;5061883;28;20965;-55
2023/12/17 04:47:09;;;;;;;11.10;6.60;;;6.10;70.20;;;;;;5057486;28;20438;-57
2023/12/17 04:49:35;;;;;;;7.63;6.73;;;6.20;69.80;;;;;;5058950;28;20208;-59
2023/12/17 04:52:01;;;;;;;7.57;6.80;;;6.20;69.20;;;;;;5059345;28;20544;-59
2023/12/17 04:54:27;;;;;;;12.20;7.00;;;6.00;69.40;;;;;;5063412;28;20457;-59
2023/12/17 04:56:54;;;;;;;9.80;6.50;;;6.00;69.90;;;;;;5061838;28;20183;-59
2023/12/17 04:59:21;;;;;;;6.43;5.77;;;6.10;69.60;;;;;;5064407;28;20208;-58
2023/12/17 05:01:46;;;;;;;8.40;6.60;;;6.20;69.30;;;;;;5061927;28;20438;-55
2023/12/17 05:04:12;;;;;;;10.17;7.30;;;6.30;69.00;;;;;;5062524;28;20449;-56
2023/12/17 05:06:38;;;;;;;7.87;6.80;;;6.10;68.20;;;;;;5060331;28;20192;-56
2023/12/17 05:09:04;;;;;;;8.27;6.90;;;6.10;69.00;;;;;;5060777;28;20551;-57
2023/12/17 05:11:29;;;;;;;8.53;7.13;;;6.30;68.90;;;;;;5059771;28;20176;-59
2023/12/17 05:13:55;;;;;;;7.30;6.50;;;6.50;68.20;;;;;;5058742;28;20445;-58
2023/12/17 05:16:20;;;;;;;8.17;7.00;;;6.50;67.60;;;;;;5062092;28;20216;-58
2023/12/17 05:18:46;;;;;;;7.40;6.40;;;6.40;67.60;;;;;;5061273;28;20208;-53
2023/12/17 05:21:11;;;;;;;8.43;7.00;;;6.40;67.80;;;;;;5061239;28;20195;-59
2023/12/17 05:23:37;;;;;;;8.10;6.53;;;6.30;67.60;;;;;;5061799;28;20191;-59
2023/12/17 05:26:02;;;;;;;8.40;6.97;;;6.30;67.90;;;;;;5062389;28;20180;-56
2023/12/17 05:28:28;;;;;;;8.73;7.00;;;6.20;68.20;;;;;;5062836;28;20932;-56
2023/12/17 05:30:54;;;;;;;7.60;6.13;;;6.20;68.10;;;;;;5061230;28;20206;-56
2023/12/17 05:33:19;;;;;;;7.43;6.67;;;6.30;68.40;;;;;;5063236;28;20265;-59
2023/12/17 05:35:45;;;;;;;12.70;7.00;;;6.40;67.80;;;;;;5061247;28;20204;-58
2023/12/17 05:38:11;;;;;;;6.30;5.70;;;6.30;68.00;;;;;;5065036;28;20195;-58
2023/12/17 05:40:36;;;;;;;6.57;5.80;;;6.20;67.90;;;;;;5058818;28;20211;-58
2023/12/17 05:43:03;;;;;;;7.67;6.83;;;6.10;68.30;;;;;;5064500;28;20188;-59
2023/12/17 05:45:30;;;;;;;6.13;5.57;;;6.20;68.20;;;;;;5064995;28;20274;-55
2023/12/17 05:47:56;;;;;;;8.53;6.90;;;6.30;67.80;;;;;;5066015;28;20430;-58
2023/12/17 05:50:22;;;;;;;8.53;6.90;;;6.10;67.50;;;;;;5064473;28;20462;-58
2023/12/17 05:52:48;;;;;;;7.90;6.47;;;6.20;68.30;;;;;;5064030;28;20275;-58
2023/12/17 05:55:14;;;;;;;7.53;6.70;;;6.10;68.20;;;;;;5065938;28;21045;-59
2023/12/17 05:57:42;;;;;;;7.83;6.50;;;6.10;68.20;;;;;;5066718;28;20333;-59
2023/12/17 06:00:08;;;;;;;7.40;6.60;;;6.10;68.10;;;;;;5065567;28;20453;-58
2023/12/17 06:02:34;;;;;;;8.03;7.10;;;6.10;68.50;;;;;;5067988;28;20410;-58
2023/12/17 06:05:00;;;;;;;10.53;7.43;;;6.20;68.60;;;;;;5064006;28;20460;-60
2023/12/17 06:07:25;;;;;;;8.00;6.90;;;6.20;68.30;;;;;;5063153;28;20188;-60
2023/12/17 06:09:51;;;;;;;10.20;7.87;;;6.30;68.00;;;;;;5062830;28;20677;-59
2023/12/17 06:12:17;;;;;;;9.87;8.43;;;6.50;67.20;;;;;;5064503;28;20302;-57
2023/12/17 06:14:43;;;;;;;10.37;9.27;;;6.40;67.20;;;;;;5062941;28;20184;-59
2023/12/17 06:17:08;;;;;;;7.47;6.77;;;6.50;67.10;;;;;;5066717;28;20721;-58
2023/12/17 06:19:34;;;;;;;7.83;6.80;;;6.50;66.30;;;;;;5060466;28;20203;-58
2023/12/17 06:22:02;;;;;;;9.43;7.20;;;6.50;66.70;;;;;;5060512;28;20639;-59
2023/12/17 06:24:28;;;;;;;8.20;7.33;;;6.40;66.50;;;;;;5062781;28;20195;-59
2023/12/17 06:26:54;;;;;;;7.20;6.47;;;6.30;66.20;;;;;;5063358;28;20457;-58
2023/12/17 06:29:19;;;;;;;8.10;6.70;;;6.30;66.70;;;;;;5063843;28;20466;-59
2023/12/17 06:31:45;;;;;;;7.40;6.60;;;6.10;66.80;;;;;;5059860;28;20208;-56
2023/12/17 06:34:11;;;;;;;6.67;5.97;;;5.90;67.60;;;;;;5060154;28;20192;-54
2023/12/17 06:36:36;;;;;;;9.07;6.50;;;6.00;72.00;;;;;;5061426;28;20215;-59
2023/12/17 06:39:02;;;;;;;8.30;7.03;;;6.30;72.60;;;;;;5065644;28;20284;-60
2023/12/17 06:41:28;;;;;;;7.30;6.60;;;6.60;73.50;;;;;;5066836;28;20196;-57
2023/12/17 06:43:54;;;;;;;8.00;7.20;;;7.00;72.00;;;;;;5063498;28;20441;-58
2023/12/17 06:46:19;;;;;;;9.33;6.87;;;7.20;69.40;;;;;;5062032;28;20264;-56
2023/12/17 06:48:49;;;;;;;7.70;6.67;;;7.40;68.70;;;;;;5069181;28;20716;-59
2023/12/17 06:51:14;;;;;;;7.10;6.17;;;7.40;64.00;;;;;;5067097;28;20694;-58
2023/12/17 06:53:40;;;;;;;8.17;7.20;;;7.20;67.10;;;;;;5067726;28;20579;-55
2023/12/17 06:56:06;;;;;;;8.87;6.80;;;7.30;67.00;;;;;;5065928;28;20269;-56
2023/12/17 06:58:33;;;;;;;9.60;6.93;;;7.40;65.90;;;;;;5066751;28;20184;-59
2023/12/17 07:00:58;;;;;;;7.43;6.23;;;7.30;65.10;;;;;;5064853;28;20472;-59
2023/12/17 07:03:24;;;;;;;7.00;6.30;;;7.00;64.60;;;;;;5067481;28;20523;-58
2023/12/17 07:05:50;;;;;;;6.53;5.83;;;6.80;66.20;;;;;;5069236;28;20184;-56
2023/12/17 07:08:15;;;;;;;6.63;5.93;;;6.90;66.60;;;;;;5069330;28;20633;-56
2023/12/17 07:10:41;;;;;;;7.70;6.87;;;7.10;66.20;;;;;;5066073;28;20456;-59
2023/12/17 07:13:07;;;;;;;6.67;6.00;;;7.40;65.20;;;;;;5070614;28;20329;-54
2023/12/17 07:15:32;;;;;;;6.77;5.80;;;7.40;64.20;;;;;;5069320;28;20226;-59
2023/12/17 07:17:58;;;;;;;6.67;6.07;;;7.50;64.40;;;;;;5068755;28;20253;-56
2023/12/17 07:20:23;;;;;;;7.83;6.57;;;7.60;64.00;;;;;;5067032;28;20203;-59
2023/12/17 07:22:49;;;;;;;6.57;5.73;;;7.40;63.40;;;;;;5070451;28;20180;-59
2023/12/17 07:25:17;;;;;;;7.93;6.40;;;7.40;64.40;;;;;;5068666;28;20199;-59
2023/12/17 07:27:43;;;;;;;7.30;6.27;;;7.60;63.90;;;;;;5069373;28;20196;-59
2023/12/17 07:30:09;;;;;;;10.10;6.67;;;7.60;63.20;;;;;;5063444;28;20454;-59
2023/12/17 07:32:34;;;;;;;7.97;6.53;;;7.80;63.10;;;;;;5069993;28;20187;-57
2023/12/17 07:35:00;;;;;;;7.07;6.40;;;7.80;62.20;;;;;;5065714;28;20624;-57
2023/12/17 07:37:25;;;;;;;7.43;6.70;;;8.00;62.40;;;;;;5069276;28;20195;-59
2023/12/17 07:39:51;;;;;;;8.17;7.13;;;8.00;61.40;;;;;;5067597;28;20216;-59
2023/12/17 07:42:17;;;;;;;9.90;8.43;;;8.20;61.30;;;;;;5069262;28;20180;-59
2023/12/17 07:44:43;;;;;;;7.30;6.57;;;8.40;61.20;;;;;;5065995;28;20176;-59
2023/12/17 07:47:10;;;;;;;6.80;5.93;;;8.60;60.80;;;;;;5069616;28;20184;-57
2023/12/17 07:49:37;;;;;;;7.10;6.10;;;8.50;59.90;;;;;;5060833;28;20501;-54
2023/12/17 07:52:02;;;;;;;6.83;6.23;;;8.60;60.00;;;;;;5063636;28;20450;-59
2023/12/17 07:54:29;;;;;;;7.60;6.90;;;8.50;59.20;;;;;;5062559;28;20446;-56
2023/12/17 07:56:55;;;;;;;7.00;6.30;;;8.60;59.50;;;;;;5062699;28;20227;-57
2023/12/17 07:59:20;;;;;;;6.57;5.97;;;8.70;59.30;;;;;;5061177;28;20477;-57
2023/12/17 08:01:46;;;;;;;6.70;6.00;;;8.20;58.40;;;;;;5061801;28;20255;-59
2023/12/17 08:04:13;;;;;;;7.10;6.40;;;8.20;59.90;;;;;;5065303;28;20180;-59
2023/12/17 08:06:38;;;;;;;9.97;6.70;;;8.10;59.60;;;;;;5068904;28;20195;-56
2023/12/17 08:09:04;;;;;;;7.33;6.60;;;8.10;60.00;;;;;;5062248;28;20527;-59
2023/12/17 08:11:30;;;;;;;7.40;6.70;;;8.00;60.60;;;;;;5062069;28;20257;-59
2023/12/17 08:13:55;;;;;;;6.80;6.20;;;7.80;61.60;;;;;;5066349;28;20266;-59
2023/12/17 08:16:21;;;;;;;8.80;6.80;;;7.90;61.70;;;;;;5065800;28;20587;-58
2023/12/17 08:18:46;;;;;;;6.77;6.17;;;8.10;61.50;;;;;;5064653;28;21907;-53
2023/12/17 08:21:12;;;;;;;8.00;6.60;;;8.20;61.40;;;;;;5064912;28;20203;-58
2023/12/17 08:23:37;;;;;;;7.57;6.83;;;8.20;60.30;;;;;;5066698;28;20193;-59
2023/12/17 08:26:03;;;;;;;8.73;7.23;;;8.20;60.60;;;;;;5063576;28;20203;-54
2023/12/17 08:28:29;;;;;;;7.63;6.83;;;8.30;60.10;;;;;;5065087;28;20195;-55
2023/12/17 08:30:54;;;;;;;6.53;5.93;;;8.20;60.00;;;;;;5062507;28;20184;-59
2023/12/17 08:33:20;;;;;;;7.37;6.33;;;8.10;60.10;;;;;;5064459;28;20234;-59
2023/12/17 08:35:45;;;;;;;8.20;7.40;;;8.20;60.80;;;;;;5068195;28;20216;-59
2023/12/17 08:38:11;;;;;;;7.80;7.00;;;8.10;61.50;;;;;;5061325;28;20203;-57
2023/12/17 08:40:38;;;;;;;8.33;7.53;;;8.20;61.50;;;;;;5057492;28;20509;-57
2023/12/17 08:43:06;;;;;;;8.00;6.97;;;8.50;61.20;;;;;;5064740;28;20501;-56
2023/12/17 08:45:32;;;;;;;7.73;6.93;;;8.40;59.70;;;;;;5061170;28;20441;-57
2023/12/17 08:47:58;;;;;;;8.80;7.80;;;8.40;61.00;;;;;;5053860;28;21047;-57
2023/12/17 08:50:24;;;;;;;7.60;6.90;;;8.40;60.50;;;;;;5062082;28;20486;-61
2023/12/17 08:52:50;;;;;;;8.57;7.73;;;8.20;62.10;;;;;;5055287;28;20453;-58
2023/12/17 08:55:16;;;;;;;8.30;7.40;;;8.30;62.60;;;;;;5055889;28;20510;-61
2023/12/17 08:57:41;;;;;;;7.83;7.03;;;8.00;62.90;;;;;;5059881;28;20564;-61
2023/12/17 09:00:07;;;;;;;7.07;6.27;;;8.00;64.50;;;;;;5060218;28;20216;-60
2023/12/17 09:02:36;;;;;;;8.17;7.47;;;8.20;63.60;;;;;;5068695;28;20211;-63
2023/12/17 09:05:02;;;;;;;9.53;7.87;;;8.40;63.30;;;;;;5054511;28;20442;-57
2023/12/17 09:07:28;;;;;;;8.00;7.20;;;8.60;63.00;;;;;;5058990;28;20438;-63
2023/12/17 09:09:54;;;;;;;7.67;6.87;;;8.70;63.00;;;;;;5057601;28;20572;-57
2023/12/17 09:12:19;;;;;;;7.43;6.73;;;8.80;63.00;;;;;;5060285;28;20176;-60
2023/12/17 09:14:45;;;;;;;9.43;7.73;;;8.70;62.20;;;;;;5061164;28;20184;-51
2023/12/17 09:17:11;;;;;;;9.73;8.10;;;8.80;62.80;;;;;;5064451;28;20410;-56
2023/12/17 09:19:37;;;;;;;7.57;6.87;;;8.80;60.90;;;;;;5063227;28;20211;-54
2023/12/17 09:22:02;;;;;;;7.80;6.87;;;8.60;62.60;;;;;;5056920;28;20188;-62
2023/12/17 09:24:28;;;;;;;7.93;7.07;;;8.60;64.10;;;;;;5062762;28;20192;-59
2023/12/17 09:26:54;;;;;;;8.93;7.40;;;8.60;63.70;;;;;;5067618;28;20204;-56
2023/12/17 09:29:20;;;;;;;8.80;7.17;;;8.90;63.50;;;;;;5064043;28;20207;-60
2023/12/17 09:31:46;;;;;;;8.17;7.37;;;8.70;62.30;;;;;;5068444;28;20269;-59
2023/12/17 09:34:14;;;;;;;8.03;7.10;;;8.80;64.30;;;;;;5068532;28;20488;-59
2023/12/17 09:36:43;;;;;;;8.30;7.37;;;9.10;64.40;;;;;;5067606;28;20264;-58
2023/12/17 09:39:08;;;;;;;8.10;7.30;;;9.30;63.90;;;;;;5067238;28;20447;-57
2023/12/17 09:41:34;;;;;;;8.37;7.57;;;9.50;62.70;;;;;;5064979;28;20438;-56
2023/12/17 09:44:00;;;;;;;9.77;8.80;;;9.70;61.60;;;;;;5061500;28;20184;-61
2023/12/17 09:46:26;;;;;;;8.00;7.30;;;9.70;62.00;;;;;;5063015;28;20176;-51
2023/12/17 09:48:51;;;;;;;10.23;8.20;;;9.90;60.90;;;;;;5062966;28;20468;-58
2023/12/17 09:51:18;;;;;;;9.10;7.17;;;10.10;59.30;;;;;;5062291;28;20238;-59
2023/12/17 09:53:44;;;;;;;7.77;6.97;;;10.10;59.80;;;;;;5061446;28;20266;-59
2023/12/17 09:56:12;;;;;;;7.43;6.70;;;10.50;58.90;;;;;;5065967;28;20647;-60
2023/12/17 09:58:38;;;;;;;7.40;6.40;;;10.80;58.30;;;;;;5063544;28;20206;-61
2023/12/17 10:01:03;;;;;;;7.77;7.07;;;11.10;57.90;;;;;;5058762;28;20969;-57
2023/12/17 10:03:30;;;;;;;8.00;6.80;;;11.40;57.20;;;;;;5065684;28;20266;-57
2023/12/17 10:05:55;;;;;;;7.20;6.60;;;11.80;56.70;;;;;;5063279;28;20184;-55
2023/12/17 10:08:23;;;;;;;9.30;7.10;;;11.90;55.90;;;;;;5067364;28;20418;-56
2023/12/17 10:10:48;;;;;;;7.80;7.10;;;12.30;55.50;;;;;;5060332;28;20263;-58
2023/12/17 10:13:21;;;;;;;7.53;6.83;;;12.30;55.00;;;;;;5064705;28;21106;-59
2023/12/17 10:15:51;;;;;;;7.40;6.70;;;11.90;54.60;;;;;;5065064;28;20241;-60
2023/12/17 10:18:18;;;;;;;9.03;8.23;;;11.90;55.90;;;;;;5065194;28;20431;-59
2023/12/17 10:20:45;;;;;;;7.30;6.60;;;12.10;55.50;;;;;;5068767;28;20996;-61
2023/12/17 10:23:11;;;;;;;8.47;7.57;;;12.10;54.60;;;;;;5067045;28;20430;-56
2023/12/17 10:25:36;;;;;;;7.73;6.97;;;12.20;54.90;;;;;;5070937;28;20437;-60
2023/12/17 10:28:02;;;;;;;7.50;6.80;;;11.70;55.10;;;;;;5068223;28;20521;-59
2023/12/17 10:30:31;;;;;;;7.37;6.67;;;11.70;56.70;;;;;;5071206;28;20215;-57
2023/12/17 10:32:58;;;;;;;8.00;7.20;;;11.90;56.20;;;;;;5071888;28;20187;-58
2023/12/17 10:35:27;;;;;;;7.37;6.70;;;12.20;55.80;;;;;;5067850;28;20576;-57
2023/12/17 10:37:56;;;;;;;10.53;7.43;;;12.30;55.20;;;;;;5068799;28;20446;-56
2023/12/17 10:40:24;;;;;;;7.87;7.07;;;12.60;54.90;;;;;;5064538;28;20545;-55
2023/12/17 10:42:50;;;;;;;8.13;7.33;;;13.00;54.70;;;;;;5063297;28;20491;-55
2023/12/17 10:45:19;;;;;;;8.20;7.40;;;13.20;54.20;;;;;;5061052;28;20855;-58
2023/12/17 10:47:47;;;;;;;8.17;7.37;;;13.40;53.40;;;;;;5060156;28;20442;-59
2023/12/17 10:50:14;;;;;;;10.80;7.50;;;13.40;52.90;;;;;;5064626;28;20449;-59
2023/12/17 10:52:40;;;;;;;7.43;6.73;;;13.60;52.40;;;;;;5061410;28;20437;-57
2023/12/17 10:55:06;;;;;;;8.13;7.40;;;13.50;52.00;;;;;;5061616;28;20478;-57
2023/12/17 10:57:34;;;;;;;9.33;8.23;;;13.60;52.50;;;;;;5063363;28;20449;-56
2023/12/17 11:00:01;;;;;;;9.40;8.23;;;13.70;52.40;;;;;;5061822;28;20192;-60
2023/12/17 11:02:27;;;;;;;7.63;6.93;;;14.10;52.10;;;;;;5062509;28;20438;-59
2023/12/17 11:04:56;;;;;;;7.40;6.70;;;14.50;51.00;;;;;;5063240;28;20690;-60
2023/12/17 11:07:22;;;;;;;8.93;7.60;;;14.30;50.00;;;;;;5069112;28;20183;-55
2023/12/17 11:09:48;;;;;;;7.67;6.97;;;14.00;50.60;;;;;;5068418;28;20560;-57
2023/12/17 11:12:16;;;;;;;8.53;7.57;;;14.00;50.90;;;;;;5068568;28;20529;-59
2023/12/17 11:14:44;;;;;;;9.23;8.10;;;14.20;51.20;;;;;;5067947;28;20187;-58
2023/12/17 11:17:11;;;;;;;8.43;7.57;;;13.90;50.50;;;;;;5063998;28;20455;-61
2023/12/17 11:19:52;;;;;;;8.47;7.23;;;13.40;52.10;;;;;;5060662;28;20647;-61
2023/12/17 11:22:18;;;;;;;7.30;6.60;;;13.20;53.40;;;;;;5066764;28;20450;-60
2023/12/17 11:24:43;;;;;;;7.23;6.53;;;13.20;52.40;;;;;;5067649;28;20429;-62
2023/12/17 11:27:11;;;;;;;8.40;7.60;;;12.90;53.20;;;;;;5070044;28;20655;-62
2023/12/17 11:29:40;;;;;;;7.47;6.83;;;12.90;53.90;;;;;;5069348;28;20203;-59
2023/12/17 11:32:07;;;;;;;8.63;7.83;;;12.90;53.20;;;;;;5061866;28;20532;-58
2023/12/17 11:34:34;;;;;;;8.50;7.70;;;12.60;53.70;;;;;;5060004;28;20429;-55
2023/12/17 11:37:00;;;;;;;9.63;8.70;;;12.50;54.40;;;;;;5066756;28;20476;-60
2023/12/17 11:39:27;;;;;;;8.20;7.40;;;12.30;55.30;;;;;;5061299;28;20474;-61
2023/12/17 11:41:53;;;;;;;7.90;7.10;;;12.50;55.20;;;;;;5063181;28;20441;-58
2023/12/17 11:44:18;;;;;;;8.10;7.30;;;12.60;54.30;;;;;;5068651;28;20841;-61
2023/12/17 11:46:48;;;;;;;8.80;7.90;;;12.60;54.30;;;;;;5062948;28;20183;-57
2023/12/17 11:49:34;;;;;;;7.53;6.83;;;12.60;54.30;;;;;;5059726;28;20595;-62
2023/12/17 11:52:13;;;;;;;8.17;6.00;;;12.70;54.10;;;;;;5062555;28;20984;-61
2023/12/17 11:54:39;;;;;;;8.30;6.90;;;12.70;54.30;;;;;;5066352;28;20984;-56
2023/12/17 11:57:20;;;;;;;7.53;6.37;;;12.70;53.90;;;;;;5064662;28;20453;-60
2023/12/17 11:59:46;;;;;;;7.23;6.53;;;12.90;54.10;;;;;;5061318;28;20457;-60
2023/12/17 12:02:14;;;;;;;7.70;6.90;;;12.80;53.40;;;;;;5060009;28;20439;-57
2023/12/17 12:04:40;;;;;;;8.13;7.33;;;12.90;54.10;;;;;;5067971;28;20184;-59
2023/12/17 12:07:06;;;;;;;7.10;6.50;;;12.90;54.00;;;;;;5065296;28;20438;-59
2023/12/17 12:09:31;;;;;;;8.63;7.70;;;13.10;53.80;;;;;;5064844;28;20449;-63
2023/12/17 12:11:57;;;;;;;9.13;8.30;;;13.10;54.30;;;;;;5062343;28;20257;-57
2023/12/17 12:14:23;;;;;;;10.30;9.40;;;13.20;54.30;;;;;;5067342;28;20196;-62
2023/12/17 12:16:48;;;;;;;12.10;8.13;;;13.50;54.50;;;;;;5068256;28;20222;-61
2023/12/17 12:19:14;;;;;;;8.83;8.00;;;13.60;53.80;;;;;;5065687;28;20268;-63
2023/12/17 12:21:40;;;;;;;8.40;7.70;;;13.50;53.40;;;;;;5063783;28;20184;-59
2023/12/17 12:24:10;;;;;;;7.07;6.37;;;13.70;53.50;;;;;;5065926;28;20618;-61
2023/12/17 12:26:36;;;;;;;7.13;6.43;;;13.80;52.70;;;;;;5056600;28;20195;-64
2023/12/17 12:29:06;;;;;;;6.30;5.80;;;13.90;52.10;;;;;;5064442;28;20465;-61
2023/12/17 12:31:32;;;;;;;8.17;7.13;;;13.70;51.90;;;;;;5062854;28;20526;-60
2023/12/17 12:33:59;;;;;;;6.27;5.67;;;13.40;52.60;;;;;;5065336;28;20534;-65
2023/12/17 12:36:26;;;;;;;9.53;6.80;;;13.50;53.30;;;;;;5056057;28;20219;-57
2023/12/17 12:39:18;;;;;;;7.20;6.50;;;13.80;53.10;;;;;;5064353;28;20542;-60
2023/12/17 12:41:47;;;;;;;8.73;7.63;;;14.00;52.70;;;;;;5062888;28;20446;-58
2023/12/17 12:44:14;;;;;;;8.60;7.80;;;14.20;52.60;;;;;;5067099;28;20453;-62
2023/12/17 12:46:46;;;;;;;8.10;7.30;;;14.40;52.30;;;;;;5064072;28;20460;-59